createdAt,value
2023-04-02T00:01:55.808Z,97.20
2023-04-02T00:04:26.475Z,97.30
2023-04-02T00:06:56.635Z,97.30
2023-04-02T00:09:33.793Z,97.40
2023-04-02T00:12:15.441Z,97.30
2023-04-02T00:14:48.754Z,97.50
2023-04-02T00:17:19.161Z,97.40
2023-04-02T00:19:51.221Z,97.30
2023-04-02T00:22:21.114Z,96.90
2023-04-02T00:24:52.945Z,96.70
2023-04-02T00:27:21.352Z,96.70
2023-04-02T00:29:50.671Z,96.50
2023-04-02T00:32:23.353Z,96.30
2023-04-02T00:34:51.756Z,95.70
2023-04-02T00:37:28.042Z,95.30
2023-04-02T00:40:01.857Z,94.90
2023-04-02T00:42:31.434Z,94.50
2023-04-02T00:44:59.876Z,94.70
2023-04-02T00:47:33.705Z,94.60
2023-04-02T00:50:06.858Z,94.60
2023-04-02T00:52:36.706Z,94.50
2023-04-02T00:55:10.461Z,94.20
2023-04-02T00:57:38.852Z,94.10
2023-04-02T01:00:21.423Z,94.10
2023-04-02T01:03:23.798Z,94.00
2023-04-02T01:06:01.646Z,94.00
2023-04-02T01:08:38.946Z,93.80
2023-04-02T01:11:14.934Z,93.80
2023-04-02T01:13:46.766Z,93.70
2023-04-02T01:16:20.581Z,93.40
2023-04-02T01:18:56.775Z,93.60
2023-04-02T01:21:46.503Z,93.70
2023-04-02T01:24:15.161Z,93.50
2023-04-02T01:26:57.612Z,93.70
2023-04-02T01:29:30.069Z,93.50
2023-04-02T01:32:01.378Z,93.70
2023-04-02T01:34:30.148Z,93.40
2023-04-02T01:37:27.350Z,93.30
2023-04-02T01:40:08.907Z,93.10
2023-04-02T01:42:39.711Z,93.10
2023-04-02T01:45:13.821Z,93.00
2023-04-02T01:47:44.133Z,93.10
2023-04-02T01:50:24.032Z,92.90
2023-04-02T01:52:55.005Z,92.90
2023-04-02T01:55:31.280Z,92.70
2023-04-02T01:58:00.681Z,92.60
2023-04-02T02:00:31.383Z,92.80
2023-04-02T02:03:00.980Z,93.00
2023-04-02T02:05:29.711Z,92.90
2023-04-02T02:07:58.916Z,92.90
2023-04-02T02:10:29.135Z,92.80
2023-04-02T02:13:00.316Z,92.90
2023-04-02T02:15:31.857Z,92.70
2023-04-02T02:18:03.548Z,92.70
2023-04-02T02:20:33.193Z,92.60
2023-04-02T02:23:03.937Z,92.40
2023-04-02T02:25:34.431Z,92.60
2023-04-02T02:28:06.786Z,92.40
2023-04-02T02:30:38.908Z,92.40
2023-04-02T02:33:14.327Z,92.20
2023-04-02T02:35:45.922Z,92.30
2023-04-02T02:38:46.639Z,92.30
2023-04-02T02:41:18.867Z,92.40
2023-04-02T02:43:53.439Z,92.40
2023-04-02T02:46:25.053Z,92.30
2023-04-02T02:48:55.105Z,92.20
2023-04-02T02:51:28.377Z,92.40
2023-04-02T02:54:01.595Z,92.40
2023-04-02T02:56:30.882Z,92.60
2023-04-02T02:59:00.306Z,92.60
2023-04-02T03:01:32.259Z,92.80
2023-04-02T03:04:00.852Z,92.60
2023-04-02T03:06:29.520Z,92.60
2023-04-02T03:09:04.063Z,92.60
2023-04-02T03:11:37.965Z,92.30
2023-04-02T03:14:13.650Z,91.90
2023-04-02T03:16:45.620Z,92.20
2023-04-02T03:19:22.424Z,92.30
2023-04-02T03:21:53.499Z,92.30
2023-04-02T03:24:28.775Z,92.10
2023-04-02T03:27:01.030Z,91.50
2023-04-02T03:29:31.862Z,91.70
2023-04-02T03:32:04.722Z,91.80
2023-04-02T03:34:35.472Z,91.40
2023-04-02T03:37:09.297Z,91.50
2023-04-02T03:39:40.411Z,91.90
2023-04-02T03:42:10.505Z,91.90
2023-04-02T03:44:45.369Z,91.80
2023-04-02T03:47:17.980Z,92.10
2023-04-02T03:49:50.005Z,91.80
2023-04-02T03:52:24.215Z,91.40
2023-04-02T03:54:54.131Z,91.10
2023-04-02T03:57:29.178Z,91.10
2023-04-02T04:00:01.934Z,91.20
2023-04-02T04:02:41.210Z,91.40
2023-04-02T04:05:20.231Z,91.30
2023-04-02T04:07:51.252Z,91.30
2023-04-02T04:10:21.800Z,90.80
2023-04-02T04:12:51.780Z,90.60
2023-04-02T04:15:23.555Z,90.60
2023-04-02T04:18:02.164Z,90.70
2023-04-02T04:20:34.000Z,90.80
2023-04-02T04:23:13.085Z,90.70
2023-04-02T04:25:41.612Z,90.80
2023-04-02T04:28:18.588Z,90.80
2023-04-02T04:30:52.024Z,90.90
2023-04-02T04:33:23.918Z,91.00
2023-04-02T04:35:56.202Z,90.30
2023-04-02T04:38:33.056Z,90.20
2023-04-02T04:41:05.708Z,90.50
2023-04-02T04:43:41.953Z,90.60
2023-04-02T04:46:13.955Z,90.60
2023-04-02T04:48:50.816Z,90.80
2023-04-02T04:51:22.161Z,91.00
2023-04-02T04:53:52.049Z,90.90
2023-04-02T04:56:22.473Z,90.90
2023-04-02T04:58:54.392Z,91.20
2023-04-02T05:01:25.453Z,90.90
2023-04-02T05:03:59.828Z,90.50
2023-04-02T05:06:37.047Z,90.60
2023-04-02T05:09:09.172Z,90.80
2023-04-02T05:11:40.082Z,90.70
2023-04-02T05:14:12.518Z,90.80
2023-04-02T05:16:44.239Z,90.70
2023-04-02T05:19:18.050Z,90.80
2023-04-02T05:21:50.203Z,91.00
2023-04-02T05:24:39.889Z,91.00
2023-04-02T05:27:19.092Z,90.90
2023-04-02T05:29:50.496Z,91.10
2023-04-02T05:32:22.250Z,91.10
2023-04-02T05:34:54.857Z,91.00
2023-04-02T05:37:24.757Z,91.00
2023-04-02T05:39:55.704Z,91.30
2023-04-02T05:42:25.381Z,91.20
2023-04-02T05:45:02.869Z,91.20
2023-04-02T05:47:32.777Z,91.10
2023-04-02T05:50:15.628Z,91.30
2023-04-02T05:52:46.547Z,91.30
2023-04-02T05:55:30.760Z,91.20
2023-04-02T05:58:25.471Z,91.30
2023-04-02T06:01:02.950Z,91.40
2023-04-02T06:03:38.861Z,91.60
2023-04-02T06:06:15.123Z,91.60
2023-04-02T06:08:46.163Z,91.60
2023-04-02T06:11:17.689Z,91.60
2023-04-02T06:13:45.970Z,91.60
2023-04-02T06:16:14.877Z,90.70
2023-04-02T06:18:43.890Z,90.10
2023-04-02T06:21:15.462Z,88.30
2023-04-02T06:23:47.018Z,83.60
2023-04-02T06:26:20.716Z,82.60
2023-04-02T06:28:52.212Z,83.90
2023-04-02T06:31:28.436Z,82.10
2023-04-02T06:33:56.857Z,80.90
2023-04-02T06:36:28.200Z,78.90
2023-04-02T06:38:58.758Z,76.60
2023-04-02T06:41:26.958Z,76.10
2023-04-02T06:43:57.096Z,75.40
2023-04-02T06:46:31.089Z,75.10
2023-04-02T06:49:04.697Z,74.10
2023-04-02T06:51:37.068Z,75.00
2023-04-02T06:54:05.639Z,74.30
2023-04-02T06:56:42.342Z,75.20
2023-04-02T06:59:12.725Z,75.30
2023-04-02T07:01:43.244Z,76.40
2023-04-02T07:04:11.851Z,76.80
2023-04-02T07:06:41.477Z,77.20
2023-04-02T07:09:09.629Z,78.40
2023-04-02T07:11:37.820Z,79.50
2023-04-02T07:14:06.339Z,78.70
2023-04-02T07:16:36.776Z,77.80
2023-04-02T07:19:05.499Z,76.10
2023-04-02T07:21:33.855Z,77.50
2023-04-02T07:24:03.503Z,78.80
2023-04-02T07:26:31.807Z,78.30
2023-04-02T07:29:00.044Z,75.20
2023-04-02T07:31:29.575Z,74.70
2023-04-02T07:34:00.318Z,75.60
2023-04-02T07:36:30.249Z,77.00
2023-04-02T07:38:58.495Z,76.30
2023-04-02T07:41:28.368Z,75.30
2023-04-02T07:43:56.581Z,75.20
2023-04-02T07:46:25.983Z,72.40
2023-04-02T07:48:54.426Z,73.20
2023-04-02T07:51:24.036Z,73.00
2023-04-02T07:53:56.082Z,67.70
2023-04-02T07:56:25.596Z,66.60
2023-04-02T07:58:55.305Z,69.90
2023-04-02T08:01:25.707Z,67.30
2023-04-02T08:03:54.719Z,67.20
2023-04-02T08:06:23.499Z,67.80
2023-04-02T08:08:51.994Z,67.50
2023-04-02T08:11:20.369Z,66.00
2023-04-02T08:13:48.565Z,63.70
2023-04-02T08:16:18.281Z,62.10
2023-04-02T08:18:47.680Z,61.50
2023-04-02T08:21:16.697Z,61.90
2023-04-02T08:23:45.262Z,64.30
2023-04-02T08:26:19.222Z,67.90
2023-04-02T08:28:47.459Z,66.10
2023-04-02T08:31:15.786Z,65.90
2023-04-02T08:33:48.601Z,65.90
2023-04-02T08:36:17.987Z,61.70
2023-04-02T08:38:46.681Z,62.10
2023-04-02T08:41:23.352Z,63.10
2023-04-02T08:44:11.618Z,62.50
2023-04-02T08:46:45.472Z,62.10
2023-04-02T08:49:17.360Z,62.00
2023-04-02T08:51:46.876Z,63.60
2023-04-02T08:54:29.049Z,59.40
2023-04-02T08:57:00.698Z,60.70
2023-04-02T08:59:33.904Z,59.80
2023-04-02T09:02:11.212Z,61.40
2023-04-02T09:04:41.800Z,61.40
2023-04-02T09:07:12.750Z,62.20
2023-04-02T09:09:41.359Z,63.00
2023-04-02T09:12:18.792Z,62.60
2023-04-02T09:14:54.438Z,59.00
2023-04-02T09:17:24.236Z,58.70
2023-04-02T09:19:57.628Z,60.80
2023-04-02T09:22:27.531Z,62.10
2023-04-02T09:24:57.436Z,62.20
2023-04-02T09:27:27.614Z,61.40
2023-04-02T09:30:00.918Z,60.90
2023-04-02T09:32:49.958Z,61.50
2023-04-02T09:35:26.257Z,62.40
2023-04-02T09:38:19.931Z,64.60
2023-04-02T09:40:50.678Z,62.10
2023-04-02T09:43:21.005Z,59.10
2023-04-02T09:45:57.643Z,59.20
2023-04-02T09:48:27.953Z,61.60
2023-04-02T09:51:14.142Z,59.50
2023-04-02T09:53:43.801Z,60.00
2023-04-02T09:56:15.180Z,57.90
2023-04-02T09:58:44.839Z,58.00
2023-04-02T10:01:30.395Z,58.20
2023-04-02T10:03:59.684Z,55.80
2023-04-02T10:06:30.737Z,57.40
2023-04-02T10:08:59.436Z,57.60
2023-04-02T10:11:40.130Z,63.70
2023-04-02T10:14:19.741Z,70.40
2023-04-02T10:16:50.836Z,65.00
2023-04-02T10:19:25.127Z,65.90
2023-04-02T10:21:55.733Z,62.20
2023-04-02T10:24:24.516Z,64.70
2023-04-02T10:26:59.242Z,65.20
2023-04-02T10:29:48.167Z,63.20
2023-04-02T10:32:18.456Z,60.50
2023-04-02T10:34:54.130Z,60.60
2023-04-02T10:37:54.466Z,62.00
2023-04-02T10:40:27.964Z,61.10
2023-04-02T10:43:04.827Z,63.00
2023-04-02T10:45:39.017Z,60.20
2023-04-02T10:48:11.525Z,54.80
2023-04-02T10:50:44.935Z,56.70
2023-04-02T10:53:16.808Z,55.90
2023-04-02T10:55:46.669Z,57.00
2023-04-02T10:58:21.850Z,60.00
2023-04-02T11:00:51.518Z,63.40
2023-04-02T11:03:25.306Z,63.50
2023-04-02T11:05:57.211Z,61.90
2023-04-02T11:08:28.939Z,61.40
2023-04-02T11:11:00.269Z,59.90
2023-04-02T11:13:31.528Z,63.10
2023-04-02T11:15:59.957Z,60.60
2023-04-02T11:18:32.770Z,59.80
2023-04-02T11:21:06.552Z,62.80
2023-04-02T11:23:52.491Z,56.70
2023-04-02T11:26:38.877Z,56.80
2023-04-02T11:29:16.430Z,58.80
2023-04-02T11:31:45.863Z,60.70
2023-04-02T11:34:37.838Z,60.00
2023-04-02T11:37:10.278Z,58.90
2023-04-02T11:39:59.841Z,60.00
2023-04-02T11:42:32.877Z,60.50
2023-04-02T11:45:23.151Z,60.20
2023-04-02T11:48:29.629Z,61.20
2023-04-02T11:50:58.732Z,60.90
2023-04-02T11:53:34.225Z,60.20
2023-04-02T11:56:21.139Z,61.60
2023-04-02T11:59:06.054Z,63.20
2023-04-02T12:02:06.207Z,63.70
2023-04-02T12:04:53.830Z,62.40
2023-04-02T12:07:35.049Z,64.90
2023-04-02T12:10:05.669Z,66.30
2023-04-02T12:12:37.622Z,64.90
2023-04-02T12:15:09.933Z,64.50
2023-04-02T12:17:41.530Z,65.50
2023-04-02T12:20:22.794Z,63.70
2023-04-02T12:22:53.835Z,63.90
2023-04-02T12:25:26.981Z,64.70
2023-04-02T12:28:17.928Z,64.30
2023-04-02T12:30:47.140Z,65.20
2023-04-02T12:33:27.889Z,61.70
2023-04-02T12:35:59.926Z,65.40
2023-04-02T12:38:30.199Z,67.80
2023-04-02T12:41:00.219Z,67.10
2023-04-02T12:43:31.032Z,67.30
2023-04-02T12:46:01.109Z,66.20
2023-04-02T12:48:30.360Z,66.20
2023-04-02T12:51:00.719Z,67.00
2023-04-02T12:53:33.354Z,67.90
2023-04-02T12:56:01.616Z,68.70
2023-04-02T12:58:33.056Z,66.70
2023-04-02T13:01:12.605Z,65.80
2023-04-02T13:03:40.982Z,64.50
2023-04-02T13:06:23.489Z,65.60
2023-04-02T13:08:52.167Z,66.30
2023-04-02T13:11:20.983Z,68.10
2023-04-02T13:13:50.139Z,68.50
2023-04-02T13:16:28.283Z,67.90
2023-04-02T13:19:12.181Z,69.70
2023-04-02T13:21:41.824Z,67.40
2023-04-02T13:24:18.195Z,66.40
2023-04-02T13:26:47.962Z,66.30
2023-04-02T13:29:24.469Z,66.60
2023-04-02T13:31:53.826Z,67.90
2023-04-02T13:34:22.059Z,70.00
2023-04-02T13:36:51.713Z,69.40
2023-04-02T13:39:20.661Z,71.30
2023-04-02T13:41:50.973Z,67.70
2023-04-02T13:44:24.801Z,70.40
2023-04-02T13:46:54.485Z,71.00
2023-04-02T13:49:23.021Z,72.90
2023-04-02T13:51:54.421Z,71.90
2023-04-02T13:54:27.404Z,71.30
2023-04-02T13:56:56.922Z,71.60
2023-04-02T13:59:26.109Z,69.20
2023-04-02T14:01:57.121Z,68.40
2023-04-02T14:04:27.195Z,69.00
2023-04-02T14:07:30.233Z,71.10
2023-04-02T14:10:04.898Z,72.00
2023-04-02T14:12:45.645Z,72.90
2023-04-02T14:15:22.759Z,70.30
2023-04-02T14:18:16.581Z,71.30
2023-04-02T14:20:51.614Z,71.60
2023-04-02T14:23:35.880Z,70.50
2023-04-02T14:26:10.588Z,69.40
2023-04-02T14:28:44.273Z,68.50
2023-04-02T14:31:20.653Z,68.30
2023-04-02T14:33:54.220Z,69.30
2023-04-02T14:36:27.705Z,68.90
2023-04-02T14:39:04.236Z,69.90
2023-04-02T14:41:36.992Z,71.60
2023-04-02T14:44:06.022Z,69.60
2023-04-02T14:46:37.756Z,69.80
2023-04-02T14:49:12.617Z,70.00
2023-04-02T14:51:44.297Z,70.10
2023-04-02T14:54:18.920Z,71.40
2023-04-02T14:56:50.313Z,71.70
2023-04-02T14:59:25.927Z,72.40
2023-04-02T15:01:58.507Z,72.60
2023-04-02T15:04:30.951Z,71.90
2023-04-02T15:07:04.557Z,71.70
2023-04-02T15:09:37.212Z,73.30
2023-04-02T15:12:10.237Z,73.80
2023-04-02T15:14:42.207Z,72.20
2023-04-02T15:17:12.238Z,73.20
2023-04-02T15:19:40.723Z,73.70
2023-04-02T15:22:24.225Z,73.70
2023-04-02T15:24:59.730Z,72.80
2023-04-02T15:27:42.903Z,72.70
2023-04-02T15:30:14.922Z,73.10
2023-04-02T15:32:44.425Z,73.40
2023-04-02T15:35:22.164Z,73.90
2023-04-02T15:37:58.640Z,73.50
2023-04-02T15:40:39.189Z,73.00
2023-04-02T15:43:15.470Z,72.60
2023-04-02T15:45:50.404Z,73.00
2023-04-02T15:48:27.310Z,72.20
2023-04-02T15:51:13.668Z,72.20
2023-04-02T15:53:48.369Z,72.50
2023-04-02T15:56:26.334Z,71.60
2023-04-02T15:59:05.178Z,71.50
2023-04-02T16:01:42.000Z,72.00
2023-04-02T16:04:27.467Z,72.10
2023-04-02T16:07:07.891Z,72.60
2023-04-02T16:09:41.158Z,73.00
2023-04-02T16:12:15.570Z,73.10
2023-04-02T16:14:46.169Z,73.30
2023-04-02T16:17:24.771Z,73.70
2023-04-02T16:19:57.895Z,73.50
2023-04-02T16:22:28.531Z,73.40
2023-04-02T16:25:01.811Z,74.20
2023-04-02T16:27:34.119Z,75.20
2023-04-02T16:30:30.546Z,76.00
2023-04-02T16:33:07.674Z,75.90
2023-04-02T16:35:43.757Z,76.70
2023-04-02T16:38:21.761Z,77.20
2023-04-02T16:41:07.613Z,78.60
2023-04-02T16:43:46.501Z,82.60
2023-04-02T16:46:31.616Z,82.80
2023-04-02T16:49:10.623Z,81.10
2023-04-02T16:51:43.890Z,78.40
2023-04-02T16:54:17.216Z,77.00
2023-04-02T16:56:55.867Z,76.80
2023-04-02T16:59:32.896Z,76.80
2023-04-02T17:02:03.826Z,77.00
2023-04-02T17:04:58.001Z,77.90
2023-04-02T17:07:34.260Z,76.70
2023-04-02T17:10:16.687Z,77.50
2023-04-02T17:12:47.594Z,78.00
2023-04-02T17:15:27.994Z,78.00
2023-04-02T17:17:58.625Z,78.40
2023-04-02T17:20:27.278Z,79.00
2023-04-02T17:22:56.766Z,78.10
2023-04-02T17:25:27.667Z,78.20
2023-04-02T17:27:57.192Z,78.30
2023-04-02T17:30:35.420Z,78.00
2023-04-02T17:33:06.723Z,77.20
2023-04-02T17:35:41.202Z,77.10
2023-04-02T17:38:12.914Z,77.70
2023-04-02T17:40:44.390Z,78.20
2023-04-02T17:43:18.959Z,78.30
2023-04-02T17:45:52.160Z,78.40
2023-04-02T17:48:28.698Z,79.40
2023-04-02T17:51:05.152Z,79.20
2023-04-02T17:53:43.170Z,80.20
2023-04-02T17:56:24.204Z,80.70
2023-04-02T17:59:13.524Z,81.20
2023-04-02T18:01:49.727Z,81.50
2023-04-02T18:04:30.998Z,82.10
2023-04-02T18:07:12.586Z,82.80
2023-04-02T18:09:45.616Z,82.50
2023-04-02T18:12:26.534Z,82.90
2023-04-02T18:15:05.622Z,82.70
2023-04-02T18:17:43.727Z,82.70
2023-04-02T18:20:24.442Z,83.10
2023-04-02T18:22:57.824Z,83.40
2023-04-02T18:25:40.642Z,83.80
2023-04-02T18:28:29.910Z,83.90
2023-04-02T18:31:02.572Z,84.00
2023-04-02T18:33:43.081Z,84.20
2023-04-02T18:36:17.375Z,84.30
2023-04-02T18:38:48.745Z,84.70
2023-04-02T18:41:27.024Z,85.50
2023-04-02T18:44:06.490Z,85.10
2023-04-02T18:46:39.488Z,85.40
2023-04-02T18:49:21.735Z,85.40
2023-04-02T18:51:53.045Z,85.40
2023-04-02T18:54:24.160Z,85.50
2023-04-02T18:56:52.385Z,85.30
2023-04-02T18:59:32.486Z,85.50
2023-04-02T19:02:04.391Z,86.20
2023-04-02T19:04:35.919Z,86.10
2023-04-02T19:07:05.890Z,85.90
2023-04-02T19:09:36.062Z,85.70
2023-04-02T19:12:08.558Z,85.00
2023-04-02T19:14:36.888Z,85.20
2023-04-02T19:17:09.574Z,85.20
2023-04-02T19:19:44.068Z,85.60
2023-04-02T19:22:17.876Z,85.40
2023-04-02T19:25:19.400Z,85.30
2023-04-02T19:27:58.084Z,85.90
2023-04-02T19:30:35.144Z,88.10
2023-04-02T19:33:10.056Z,88.30
2023-04-02T19:35:45.007Z,88.40
2023-04-02T19:38:21.276Z,87.10
2023-04-02T19:40:53.688Z,86.90
2023-04-02T19:43:21.956Z,87.20
2023-04-02T19:45:50.618Z,87.00
2023-04-02T19:48:21.196Z,86.60
2023-04-02T19:50:50.997Z,86.90
2023-04-02T19:53:19.988Z,87.00
2023-04-02T19:55:48.396Z,87.60
2023-04-02T19:58:24.113Z,87.40
2023-04-02T20:00:52.452Z,87.50
2023-04-02T20:03:20.756Z,88.00
2023-04-02T20:05:50.995Z,88.20
2023-04-02T20:08:19.352Z,88.60
2023-04-02T20:10:47.744Z,89.00
2023-04-02T20:13:16.319Z,89.40
2023-04-02T20:15:44.956Z,89.40
2023-04-02T20:18:13.268Z,89.60
2023-04-02T20:20:41.522Z,90.00
2023-04-02T20:23:11.210Z,90.10
2023-04-02T20:25:39.523Z,90.20
2023-04-02T20:28:07.778Z,90.10
2023-04-02T20:30:36.320Z,90.20
2023-04-02T20:33:05.116Z,90.20
2023-04-02T20:35:35.344Z,90.40
2023-04-02T20:38:06.569Z,90.50
2023-04-02T20:40:36.618Z,90.60
2023-04-02T20:43:05.126Z,90.60
2023-04-02T20:45:33.431Z,90.60
2023-04-02T20:48:01.856Z,90.60
2023-04-02T20:50:30.257Z,90.60
2023-04-02T20:52:59.640Z,90.60
2023-04-02T20:55:27.838Z,90.60
2023-04-02T20:57:57.519Z,90.70
2023-04-02T21:00:26.063Z,90.80
2023-04-02T21:02:54.440Z,91.00
2023-04-02T21:05:22.791Z,91.00
2023-04-02T21:07:51.182Z,91.00
2023-04-02T21:10:19.428Z,91.10
2023-04-02T21:12:47.694Z,91.10
2023-04-02T21:15:17.588Z,91.30
2023-04-02T21:17:45.989Z,91.40
2023-04-02T21:20:14.379Z,91.40
2023-04-02T21:22:42.596Z,91.50
2023-04-02T21:25:11.340Z,91.60
2023-04-02T21:27:39.556Z,91.50
2023-04-02T21:30:09.315Z,91.50
2023-04-02T21:32:39.130Z,91.60
2023-04-02T21:35:08.978Z,91.70
2023-04-02T21:37:37.350Z,91.80
2023-04-02T21:40:06.456Z,92.10
2023-04-02T21:42:34.736Z,92.20
2023-04-02T21:45:02.998Z,92.40
2023-04-02T21:47:31.393Z,92.20
2023-04-02T21:50:01.100Z,92.30
2023-04-02T21:52:29.383Z,92.30
2023-04-02T21:54:57.737Z,92.50
2023-04-02T21:57:26.079Z,92.60
2023-04-02T21:59:56.985Z,92.90
2023-04-02T22:02:25.437Z,93.10
2023-04-02T22:04:53.662Z,93.10
2023-04-02T22:07:23.324Z,93.20
2023-04-02T22:09:51.470Z,93.40
2023-04-02T22:12:19.684Z,93.30
2023-04-02T22:14:49.812Z,93.40
2023-04-02T22:17:18.174Z,93.40
2023-04-02T22:19:46.390Z,93.40
2023-04-02T22:22:14.593Z,93.50
2023-04-02T22:24:44.196Z,93.50
2023-04-02T22:27:12.586Z,93.40
2023-04-02T22:29:40.775Z,93.30
2023-04-02T22:32:09.064Z,93.40
2023-04-02T22:34:39.518Z,93.30
2023-04-02T22:37:07.772Z,93.30
2023-04-02T22:39:36.018Z,93.50
2023-04-02T22:42:05.768Z,93.40
2023-04-02T22:44:34.062Z,93.30
2023-04-02T22:47:02.288Z,93.40
2023-04-02T22:49:30.686Z,93.40
2023-04-02T22:51:58.947Z,93.30
2023-04-02T22:54:27.177Z,93.30
2023-04-02T22:56:55.676Z,93.50
2023-04-02T22:59:25.765Z,93.50
2023-04-02T23:01:54.085Z,93.70
2023-04-02T23:04:22.449Z,93.80
2023-04-02T23:06:50.618Z,93.80
2023-04-02T23:09:18.794Z,93.70
2023-04-02T23:11:47.115Z,93.80
2023-04-02T23:14:15.445Z,93.80
2023-04-02T23:16:45.140Z,93.90
2023-04-02T23:19:13.395Z,94.00
2023-04-02T23:21:41.836Z,93.90
2023-04-02T23:24:12.376Z,94.00
2023-04-02T23:26:40.725Z,94.00
2023-04-02T23:29:08.935Z,94.20
2023-04-02T23:31:37.172Z,94.40
2023-04-02T23:34:07.312Z,94.60
2023-04-02T23:36:36.691Z,94.60
2023-04-02T23:39:09.520Z,94.80
2023-04-02T23:41:39.464Z,95.00
2023-04-02T23:44:08.225Z,95.00
2023-04-02T23:46:37.376Z,94.90
2023-04-02T23:49:07.313Z,95.00
2023-04-02T23:51:35.542Z,95.00
2023-04-02T23:54:04.000Z,95.00
2023-04-02T23:56:32.209Z,95.00
2023-04-02T23:59:00.628Z,95.20
